Portada
METAR-TAF:

METAR-TAF

Aeroports :

Karachi, Pakistan

latitud: 24-54N, longitud: 067-08E, altitud: 21 m

Observació

L'informe es va fer fa 20 minuts, a les 20:25 UTC
Vent 10 kt del Oest
Temperatura 30°C
Humitat 70%
Pressió 1004 hPa
Visibilitat: 6000 m

METAR: OPKC 262025Z 26010KT 6000 NSC 30/24 Q1004 NOSIG

Hora: 01:45 (20:45 UTC)

Pronòstic

L'informe es va fer fa 2 hores i 15 minuts, a les 18:30 UTC
Pronòstic vàlid del 26 a les 21 UTC al 27 a les 06 UTC
Vent 10 kt del Oest/Sud-Oest
Visibilitat: 6000 m
Temporalment
l' 27 a les 00 UTC al 27 a les 04 UTC
Vent 15 kt del Oest
Visibilitat: 5000 m
Núvols disperses a una alçada de 2500 ft
calitja

TAF: OPKC 261830Z 2621/2706 25010KT 6000 NSC TEMPO 2700/2704 27015KT 5000 HZ SCT025

Observacions i pronòstics meteorològics de més de 4000 aeroports (METAR i TAF).

Les estacions disponibles són els punts grocs i vermells al mapa.

Posi el ratolí al punt desitjat per veure el nom de l'estació.

Feu clic per veure les observacions i els pronòstics meteorològics.

Per canviar el mapa: feu clic els botons verds amb una creu de color negre per apropar; al botó verd amb un guió per allunyar la imatge; o en les fletxes verdes per a mapes adjacents.


METAR-TAF: